Airfield :
LOGIN :

Register | Disclaimer

   EN    FR    IT 

 










Legend :    VFR   Marginal VFR   IFR   Intensive IFR   Very Intensive IFR
Visi :
Ceiling :
>= 8 km
>= 3000ft
5 to 8 km
1000 to 3000 ft
1500m to 5 km
500 to 1000 ft
800 to 1500m
200 to 500 ft
< 800m
< 200 ft
Symbols :   Thunderstorms  Fog  Heavy snow  Heavy precipitations  Wind > 20 kt
SIGMETs :     Misc.  Thunderstorms  Icing  Turbulence  Mountain Waves  Volcanic Ashes







- Airport Elevation : 140 ft
- IATA code : NYO


ESKN - Skavsta

CURRENT METAR :
  • 231550Z 32013KT 9999 BKN022 05/02 Q0990

EXPIRED METARs :
  • 231520Z 33013KT 9999 BKN017 05/03 Q0990
  • 231450Z 32013G27KT 9999 -RA SCT008 BKN018 06/03 Q0990
  • 231420Z 32015KT 9999 FEW015 SCT021 BKN028 06/03 Q0990
  • 231350Z 33015KT 9999 -RA BKN015 06/04 Q0989
  • 231320Z 34016KT 9999 BKN016 06/04 Q0989

TAF TAF ESKN
Valid from the 23 at 12:00 until the 24 at 12:00 UTC


231130Z 2312/2412 32012KT 9999 SCT015 BKN030
PROB40 2312/2315 BKN014
BECMG 2315/2317 34015G25KT
BECMG 2408/2410 34012KT
No reported NOTAMs for that airfield.



MET'MAP, your aeronautical weather chart ! - Copyright ORBIFLY December 2007 - Disclaimer

ORBIFLY MET'MAP TEAM :

Programming & Development : Alexandra Zaïnal
Concept & Development : Baudouin d'Aumeries
Co-Development & Prog : Marc-Olivier Méhu
Technical & hardware support : Manuel Goepfert

Contact : metmap@orbifly.com




SOURCES & CREDITS :

   NOAA